This is the latest recevied weather packets stored in our database for station/object HK4RAU-16. If no packets are shown the sender has not sent any weather packets the latest 10 day(s).
| Time | Temp. | Humidity | Pressure | Rain* | Wind** | Luminosity | Snow |
|---|---|---|---|---|---|---|---|
| 1777506970 | 16.67° C | 83% | 1012 hPa | 0 mm | - | - | - |
| 1777506668 | 17.22° C | 83% | 1012 hPa | 0 mm | - | - | - |
| 1777506367 | 17.22° C | 83% | 1012 hPa | 0 mm | - | - | - |
| 1777506057 | 17.78° C | 83% | 1012 hPa | 0 mm | - | - | - |
| 1777505737 | 16.67° C | 80% | 1012 hPa | 0 mm | - | - | - |
| 1777505429 | 17.22° C | 80% | 1012 hPa | 0 mm | - | - | - |
| 1777505121 | 17.78° C | 80% | 1011 hPa | 0 mm | - | - | - |
| 1777504818 | 17.78° C | 80% | 1011 hPa | 0 mm | - | - | - |
| 1777504511 | 18.33° C | 80% | 1011 hPa | 0 mm | - | - | - |
| 1777504202 | 18.89° C | 80% | 1011 hPa | 0 mm | - | - | - |
| 1777503896 | 19.44° C | 80% | 1011 hPa | 0 mm | - | - | - |
| 1777503589 | 20° C | 80% | 1011 hPa | 0 mm | - | - | - |
| 1777503288 | 20.56° C | 80% | 1011 hPa | 0 mm | - | - | - |
| 1777502980 | 21.11° C | 80% | 1011 hPa | 0 mm | - | - | - |
| 1777502679 | 21.11° C | 80% | 1011 hPa | 0 mm | - | - | - |
| 1777502380 | 21.67° C | 80% | 1011 hPa | 0 mm | - | - | - |
| 1777502066 | 25.56° C | 66% | 1010 hPa | 0 mm | - | - | - |
| 1777501764 | 25.56° C | 66% | 1010 hPa | 0 mm | - | - | - |
| 1777501455 | 25.56° C | 65% | 1010 hPa | 0 mm | - | - | - |
| 1777501147 | 25.56° C | 66% | 1010 hPa | 0 mm | - | - | - |
| 1777500845 | 25.56° C | 66% | 1010 hPa | 0 mm | - | - | - |
| 1777500539 | 25.56° C | 66% | 1010 hPa | 0 mm | - | - | - |
| 1777499936 | 22.22° C | 64% | 1010 hPa | 0 mm | - | - | - |
| 1777499635 | 22.22° C | 64% | 1010 hPa | 0 mm | - | - | - |
| 1777499333 | 22.78° C | 64% | 1010 hPa | 0 mm | - | - | - |
* Rain latest hour (hover to see other rain measurements)
** Current wind speed in m/s (hover to see current wind gust speed)